Time,TemperatureF,DewpointF,PressureIn,WindDirection,WindDirectionDegrees,WindSpeedMPH,WindSpeedGustMPH,Humidity,HourlyPrecipIn,Conditions,Clouds,dailyrainin,SoftwareType,DateUTC
2013-01-15 00:01:00,38.8,28.0,30.30,West,264,0.0,1.0,65,0.00,,,0.00,weatherlink.com 1.10,2013-01-15 08:01:00,
2013-01-15 00:16:00,38.6,28.0,30.31,West,264,0.0,0.0,65,0.00,,,0.00,weatherlink.com 1.10,2013-01-15 08:16:00,
2013-01-15 00:31:00,38.8,27.0,30.31,WNW,290,0.0,1.0,62,0.00,,,0.00,weatherlink.com 1.10,2013-01-15 08:31:00,
2013-01-15 00:46:00,38.6,26.0,30.31,WNW,288,0.0,0.0,60,0.00,,,0.00,weatherlink.com 1.10,2013-01-15 08:46:00,
2013-01-15 01:01:00,38.0,26.0,30.32,WNW,290,0.0,1.0,63,0.00,,,0.00,weatherlink.com 1.10,2013-01-15 09:01:00,
2013-01-15 01:16:00,37.2,26.0,30.33,WNW,289,0.0,0.0,65,0.00,,,0.00,weatherlink.com 1.10,2013-01-15 09:16:00,
2013-01-15 01:31:00,36.8,27.0,30.33,WNW,290,0.0,0.0,67,0.00,,,0.00,weatherlink.com 1.10,2013-01-15 09:31:00,
2013-01-15 01:46:00,36.3,27.0,30.34,WNW,289,0.0,0.0,69,0.00,,,0.00,weatherlink.com 1.10,2013-01-15 09:46:00,
2013-01-15 02:01:00,35.8,26.0,30.35,WNW,288,0.0,0.0,68,0.00,,,0.00,weatherlink.com 1.10,2013-01-15 10:01:00,
2013-01-15 02:16:00,36.1,27.0,30.35,WNW,288,0.0,0.0,70,0.00,,,0.00,weatherlink.com 1.10,2013-01-15 10:16:00,
2013-01-15 02:31:00,36.0,27.0,30.35,WNW,290,0.0,0.0,69,0.00,,,0.00,weatherlink.com 1.10,2013-01-15 10:31:00,
2013-01-15 02:46:00,35.6,27.0,30.36,WNW,288,0.0,0.0,70,0.00,,,0.00,weatherlink.com 1.10,2013-01-15 10:46:00,
2013-01-15 03:01:00,35.1,27.0,30.35,WNW,289,0.0,0.0,71,0.00,,,0.00,weatherlink.com 1.10,2013-01-15 11:01:00,
2013-01-15 03:16:00,35.1,27.0,30.35,WNW,289,0.0,0.0,71,0.00,,,0.00,weatherlink.com 1.10,2013-01-15 11:16:00,
2013-01-15 03:31:00,35.0,27.0,30.35,WNW,290,0.0,1.0,72,0.00,,,0.00,weatherlink.com 1.10,2013-01-15 11:31:00,
2013-01-15 03:46:00,34.2,26.0,30.36,WNW,290,0.0,0.0,73,0.00,,,0.00,weatherlink.com 1.10,2013-01-15 11:46:00,
2013-01-15 04:01:00,34.7,26.0,30.34,WNW,290,0.0,1.0,71,0.00,,,0.00,weatherlink.com 1.10,2013-01-15 12:01:00,
2013-01-15 04:17:00,34.6,26.0,30.34,WNW,290,0.0,0.0,70,0.00,,,0.00,weatherlink.com 1.10,2013-01-15 12:17:00,
2013-01-15 04:32:00,34.4,26.0,30.35,WNW,290,0.0,0.0,70,0.00,,,0.00,weatherlink.com 1.10,2013-01-15 12:32:00,
2013-01-15 04:47:00,34.6,26.0,30.35,WNW,290,0.0,0.0,70,0.00,,,0.00,weatherlink.com 1.10,2013-01-15 12:47:00,
2013-01-15 05:02:00,34.4,26.0,30.35,WNW,288,0.0,1.0,71,0.00,,,0.00,weatherlink.com 1.10,2013-01-15 13:02:00,
2013-01-15 05:17:00,34.4,25.0,30.35,WNW,289,0.0,0.0,69,0.00,,,0.00,weatherlink.com 1.10,2013-01-15 13:17:00,
2013-01-15 05:32:00,34.4,26.0,30.36,WNW,289,0.0,0.0,70,0.00,,,0.00,weatherlink.com 1.10,2013-01-15 13:32:00,
2013-01-15 05:47:00,33.9,25.0,30.36,WNW,289,0.0,0.0,71,0.00,,,0.00,weatherlink.com 1.10,2013-01-15 13:47:00,
2013-01-15 06:02:00,33.5,26.0,30.36,WNW,289,0.0,1.0,73,0.00,,,0.00,weatherlink.com 1.10,2013-01-15 14:02:00,
2013-01-15 06:17:00,33.4,26.0,30.37,WNW,288,0.0,0.0,73,0.00,,,0.00,weatherlink.com 1.10,2013-01-15 14:17:00,
2013-01-15 06:32:00,33.6,26.0,30.37,WNW,288,0.0,1.0,74,0.00,,,0.00,weatherlink.com 1.10,2013-01-15 14:32:00,
2013-01-15 06:47:00,32.9,25.0,30.37,WNW,289,0.0,0.0,74,0.00,,,0.00,weatherlink.com 1.10,2013-01-15 14:47:00,
2013-01-15 07:02:00,32.9,26.0,30.37,WNW,289,0.0,0.0,75,0.00,,,0.00,weatherlink.com 1.10,2013-01-15 15:02:00,
2013-01-15 07:17:00,32.7,26.0,30.38,WNW,289,0.0,0.0,76,0.00,,,0.00,weatherlink.com 1.10,2013-01-15 15:17:00,
2013-01-15 07:32:00,34.7,27.0,30.39,WNW,288,0.0,0.0,74,0.00,,,0.00,weatherlink.com 1.10,2013-01-15 15:32:00,
2013-01-15 07:47:00,37.1,29.0,30.39,WNW,288,0.0,0.0,72,0.00,,,0.00,weatherlink.com 1.10,2013-01-15 15:47:00,
2013-01-15 08:02:00,39.2,27.0,30.40,WNW,288,1.0,1.0,62,0.00,,,0.00,weatherlink.com 1.10,2013-01-15 16:02:00,
2013-01-15 08:17:00,41.7,26.0,30.41,WNW,290,1.0,1.0,54,0.00,,,0.00,weatherlink.com 1.10,2013-01-15 16:17:00,
2013-01-15 08:32:00,44.2,23.0,30.42,NNW,329,2.0,3.0,44,0.00,,,0.00,weatherlink.com 1.10,2013-01-15 16:32:00,
2013-01-15 08:47:00,45.6,24.0,30.42,NW,316,0.0,2.0,42,0.00,,,0.00,weatherlink.com 1.10,2013-01-15 16:47:00,
2013-01-15 09:02:00,47.2,23.0,30.42,NW,319,1.0,2.0,38,0.00,,,0.00,weatherlink.com 1.10,2013-01-15 17:02:00,
2013-01-15 09:17:00,48.2,22.0,30.43,North,353,1.0,4.0,35,0.00,,,0.00,weatherlink.com 1.10,2013-01-15 17:17:00,
2013-01-15 09:32:00,49.5,20.0,30.43,NNW,333,0.0,3.0,31,0.00,,,0.00,weatherlink.com 1.10,2013-01-15 17:32:00,
2013-01-15 09:47:00,51.8,20.0,30.43,NW,312,0.0,2.0,29,0.00,,,0.00,weatherlink.com 1.10,2013-01-15 17:47:00,
2013-01-15 10:02:00,53.7,20.0,30.42,NW,310,1.0,2.0,27,0.00,,,0.00,weatherlink.com 1.10,2013-01-15 18:02:00,
2013-01-15 10:18:00,54.6,18.0,30.41,NNW,330,1.0,3.0,24,0.00,,,0.00,weatherlink.com 1.10,2013-01-15 18:18:00,
2013-01-15 10:33:00,55.9,16.0,30.40,WNW,283,0.0,3.0,21,0.00,,,0.00,weatherlink.com 1.10,2013-01-15 18:33:00,
2013-01-15 10:48:00,57.2,13.0,30.39,West,274,2.0,4.0,17,0.00,,,0.00,weatherlink.com 1.10,2013-01-15 18:48:00,
2013-01-15 11:03:00,57.2,14.0,30.37,NNW,329,1.0,7.0,18,0.00,,,0.00,weatherlink.com 1.10,2013-01-15 19:03:00,
2013-01-15 11:18:00,58.1,12.0,30.37,WNW,302,1.0,5.0,16,0.00,,,0.00,weatherlink.com 1.10,2013-01-15 19:18:00,
2013-01-15 11:33:00,58.6,11.0,30.36,West,267,1.0,5.0,15,0.00,,,0.00,weatherlink.com 1.10,2013-01-15 19:33:00,
2013-01-15 11:48:00,58.7,9.0,30.35,WNW,294,4.0,7.0,14,0.00,,,0.00,weatherlink.com 1.10,2013-01-15 19:48:00,
2013-01-15 12:03:00,59.6,10.0,30.34,WSW,248,0.0,6.0,14,0.00,,,0.00,weatherlink.com 1.10,2013-01-15 20:03:00,
2013-01-15 12:18:00,60.5,9.0,30.33,WSW,240,2.0,7.0,13,0.00,,,0.00,weatherlink.com 1.10,2013-01-15 20:18:00,
2013-01-15 12:33:00,60.1,9.0,30.32,West,265,2.0,8.0,13,0.00,,,0.00,weatherlink.com 1.10,2013-01-15 20:33:00,
2013-01-15 12:48:00,60.7,11.0,30.32,West,267,3.0,8.0,14,0.00,,,0.00,weatherlink.com 1.10,2013-01-15 20:48:00,
2013-01-15 13:03:00,60.9,10.0,30.31,West,272,2.0,9.0,13,0.00,,,0.00,weatherlink.com 1.10,2013-01-15 21:03:00,
2013-01-15 13:18:00,61.4,12.0,30.30,NW,304,2.0,7.0,14,0.00,,,0.00,weatherlink.com 1.10,2013-01-15 21:18:00,
2013-01-15 13:33:00,62.4,12.0,30.30,WSW,248,4.0,7.0,14,0.00,,,0.00,weatherlink.com 1.10,2013-01-15 21:33:00,
2013-01-15 13:48:00,62.0,12.0,30.29,WNW,283,5.0,9.0,14,0.00,,,0.00,weatherlink.com 1.10,2013-01-15 21:48:00,
2013-01-15 14:03:00,61.7,12.0,30.30,West,274,1.0,7.0,14,0.00,,,0.00,weatherlink.com 1.10,2013-01-15 22:03:00,
2013-01-15 14:18:00,62.0,14.0,30.29,WNW,301,4.0,8.0,15,0.00,,,0.00,weatherlink.com 1.10,2013-01-15 22:18:00,
2013-01-15 14:33:00,62.4,12.0,30.29,West,271,4.0,9.0,14,0.00,,,0.00,weatherlink.com 1.10,2013-01-15 22:33:00,
2013-01-15 14:48:00,62.6,13.0,30.29,WSW,253,6.0,7.0,14,0.00,,,0.00,weatherlink.com 1.10,2013-01-15 22:48:00,
2013-01-15 15:03:00,62.5,12.0,30.30,WNW,292,9.0,10.0,14,0.00,,,0.00,weatherlink.com 1.10,2013-01-15 23:03:00,
2013-01-15 15:18:00,60.9,18.0,30.30,NNW,332,8.0,10.0,19,0.00,,,0.00,weatherlink.com 1.10,2013-01-15 23:18:00,
2013-01-15 15:33:00,60.3,15.0,30.30,WNW,285,2.0,11.0,17,0.00,,,0.00,weatherlink.com 1.10,2013-01-15 23:33:00,
2013-01-15 15:48:00,59.9,20.0,30.29,WSW,250,7.0,10.0,21,0.00,,,0.00,weatherlink.com 1.10,2013-01-15 23:48:00,
2013-01-15 16:03:00,59.5,20.0,30.29,West,265,4.0,7.0,22,0.00,,,0.00,weatherlink.com 1.10,2013-01-16 00:03:00,
2013-01-15 16:18:00,58.7,22.0,30.29,NW,312,4.0,8.0,24,0.00,,,0.00,weatherlink.com 1.10,2013-01-16 00:18:00,
2013-01-15 16:33:00,57.9,22.0,30.30,NW,307,10.0,11.0,25,0.00,,,0.00,weatherlink.com 1.10,2013-01-16 00:33:00,
2013-01-15 16:48:00,56.6,26.0,30.30,WNW,297,5.0,10.0,31,0.00,,,0.00,weatherlink.com 1.10,2013-01-16 00:48:00,
2013-01-15 17:03:00,55.6,27.0,30.31,West,271,1.0,8.0,33,0.00,,,0.00,weatherlink.com 1.10,2013-01-16 01:03:00,
2013-01-15 17:18:00,54.9,28.0,30.32,West,267,0.0,5.0,35,0.00,,,0.00,weatherlink.com 1.10,2013-01-16 01:18:00,
2013-01-15 17:33:00,54.1,31.0,30.32,NW,312,0.0,3.0,42,0.00,,,0.00,weatherlink.com 1.10,2013-01-16 01:33:00,
2013-01-15 17:48:00,53.5,34.0,30.32,WNW,289,0.0,4.0,48,0.00,,,0.00,weatherlink.com 1.10,2013-01-16 01:48:00,
2013-01-15 18:03:00,52.9,35.0,30.32,WNW,295,0.0,3.0,50,0.00,,,0.00,weatherlink.com 1.10,2013-01-16 02:03:00,
2013-01-15 18:18:00,52.0,34.0,30.33,NW,309,0.0,1.0,51,0.00,,,0.00,weatherlink.com 1.10,2013-01-16 02:18:00,
2013-01-15 18:33:00,51.0,35.0,30.33,NW,307,0.0,0.0,54,0.00,,,0.00,weatherlink.com 1.10,2013-01-16 02:33:00,
2013-01-15 18:48:00,50.3,35.0,30.33,NW,307,0.0,0.0,57,0.00,,,0.00,weatherlink.com 1.10,2013-01-16 02:48:00,
2013-01-15 19:03:00,49.6,36.0,30.33,NW,307,0.0,0.0,60,0.00,,,0.00,weatherlink.com 1.10,2013-01-16 03:03:00,
2013-01-15 19:18:00,48.6,36.0,30.34,NW,307,0.0,0.0,62,0.00,,,0.00,weatherlink.com 1.10,2013-01-16 03:18:00,
2013-01-15 19:33:00,48.3,37.0,30.33,NW,307,0.0,0.0,64,0.00,,,0.00,weatherlink.com 1.10,2013-01-16 03:33:00,
2013-01-15 19:48:00,48.1,37.0,30.33,NW,307,0.0,1.0,66,0.00,,,0.00,weatherlink.com 1.10,2013-01-16 03:48:00,
2013-01-15 20:03:00,47.7,37.0,30.32,NW,307,0.0,2.0,67,0.00,,,0.00,weatherlink.com 1.10,2013-01-16 04:03:00,
2013-01-15 20:18:00,47.3,37.0,30.33,NW,307,0.0,0.0,68,0.00,,,0.00,weatherlink.com 1.10,2013-01-16 04:18:00,
2013-01-15 20:33:00,46.4,37.0,30.32,NW,307,0.0,0.0,70,0.00,,,0.00,weatherlink.com 1.10,2013-01-16 04:33:00,
2013-01-15 20:48:00,45.8,37.0,30.33,NW,307,0.0,0.0,72,0.00,,,0.00,weatherlink.com 1.10,2013-01-16 04:48:00,
2013-01-15 21:03:00,45.1,37.0,30.33,NW,307,0.0,0.0,72,0.00,,,0.00,weatherlink.com 1.10,2013-01-16 05:03:00,
2013-01-15 21:18:00,45.7,37.0,30.33,NW,307,0.0,1.0,73,0.00,,,0.00,weatherlink.com 1.10,2013-01-16 05:18:00,
2013-01-15 21:33:00,45.6,37.0,30.33,NW,307,0.0,0.0,72,0.00,,,0.00,weatherlink.com 1.10,2013-01-16 05:33:00,
2013-01-15 21:48:00,44.7,37.0,30.32,NW,307,0.0,0.0,74,0.00,,,0.00,weatherlink.com 1.10,2013-01-16 05:48:00,
2013-01-15 22:03:00,44.2,37.0,30.33,NW,307,0.0,1.0,76,0.00,,,0.00,weatherlink.com 1.10,2013-01-16 06:03:00,
2013-01-15 22:18:00,43.6,37.0,30.32,NW,307,0.0,0.0,76,0.00,,,0.00,weatherlink.com 1.10,2013-01-16 06:18:00,
2013-01-15 22:33:00,43.0,36.0,30.32,NW,307,0.0,0.0,77,0.00,,,0.00,weatherlink.com 1.10,2013-01-16 06:33:00,
2013-01-15 22:48:00,42.7,36.0,30.32,NW,307,0.0,0.0,77,0.00,,,0.00,weatherlink.com 1.10,2013-01-16 06:48:00,
2013-01-15 23:03:00,42.4,36.0,30.32,NW,307,0.0,0.0,79,0.00,,,0.00,weatherlink.com 1.10,2013-01-16 07:03:00,
2013-01-15 23:18:00,42.3,36.0,30.33,NW,307,0.0,1.0,79,0.00,,,0.00,weatherlink.com 1.10,2013-01-16 07:18:00,
2013-01-15 23:33:00,41.9,36.0,30.32,NW,305,0.0,0.0,79,0.00,,,0.00,weatherlink.com 1.10,2013-01-16 07:33:00,
2013-01-15 23:48:00,41.3,36.0,30.32,NW,305,0.0,0.0,80,0.00,,,0.00,weatherlink.com 1.10,2013-01-16 07:48:00,